Time;durP1;ratioP1;P1;durP2;ratioP2;P2;SDS_P1;SDS_P2;PMS_P1;PMS_P2;Temp;Humidity;BMP_temperature;BMP_pressure;BME280_temperature;BME280_humidity;BME280_pressure;Samples;Min_cycle;Max_cycle;Signal;HPM_P1;HPM_P2
2023/04/21 00:01:07;;;;;;;9.50;7.10;;;8.90;99.90;;;;;;7390989;19;20152;-72
2023/04/21 00:03:37;;;;;;;8.80;7.03;;;8.70;99.90;;;;;;7391134;19;20217;-71
2023/04/21 00:06:08;;;;;;;9.03;7.37;;;8.80;99.90;;;;;;7389575;19;20169;-72
2023/04/21 00:08:39;;;;;;;9.03;7.43;;;8.90;99.90;;;;;;7389029;19;20146;-72
2023/04/21 00:11:06;;;;;;;8.63;7.33;;;8.90;99.90;;;;;;7391666;19;20138;-71
2023/04/21 00:13:35;;;;;;;10.77;7.93;;;9.00;99.90;;;;;;7390149;19;20134;-72
2023/04/21 00:16:01;;;;;;;10.93;8.47;;;9.20;99.90;;;;;;7390271;19;20145;-71
2023/04/21 00:18:27;;;;;;;11.80;9.27;;;9.20;99.90;;;;;;7391580;19;20465;-72
2023/04/21 00:20:53;;;;;;;13.10;9.63;;;9.20;99.90;;;;;;7391020;19;20142;-71
2023/04/21 00:23:19;;;;;;;13.10;10.23;;;9.20;99.90;;;;;;7390045;19;20130;-71
2023/04/21 00:25:45;;;;;;;13.03;10.37;;;8.80;99.90;;;;;;7391136;19;20150;-72
2023/04/21 00:28:10;;;;;;;15.40;9.90;;;8.70;99.90;;;;;;7389381;19;20173;-72
2023/04/21 00:30:36;;;;;;;13.37;9.50;;;8.80;99.90;;;;;;7390567;19;20146;-72
2023/04/21 00:33:02;;;;;;;12.60;9.67;;;9.00;99.90;;;;;;7386378;19;20230;-71
2023/04/21 00:35:27;;;;;;;12.40;9.80;;;9.10;99.90;;;;;;7390598;19;20157;-71
2023/04/21 00:37:53;;;;;;;12.43;9.33;;;9.20;99.90;;;;;;7390441;19;20146;-72
2023/04/21 00:40:21;;;;;;;12.60;9.37;;;9.20;99.90;;;;;;7388650;19;20146;-72
2023/04/21 00:42:48;;;;;;;11.60;8.43;;;9.10;99.90;;;;;;7388426;19;20876;-72
2023/04/21 00:45:14;;;;;;;11.73;9.27;;;9.20;99.90;;;;;;7390850;19;20154;-72
2023/04/21 00:47:40;;;;;;;16.90;8.63;;;9.00;99.90;;;;;;7388578;19;20151;-73
2023/04/21 00:50:06;;;;;;;14.03;10.47;;;8.90;99.90;;;;;;7389610;19;20265;-70
2023/04/21 00:52:34;;;;;;;14.23;10.40;;;8.70;99.90;;;;;;7389977;19;20142;-71
2023/04/21 00:54:59;;;;;;;14.60;9.90;;;8.90;99.90;;;;;;7388002;19;20162;-72
2023/04/21 00:57:29;;;;;;;13.80;10.23;;;9.10;99.90;;;;;;7390067;19;20151;-72
2023/04/21 00:59:55;;;;;;;15.23;10.43;;;9.20;99.90;;;;;;7390000;19;20480;-71
2023/04/21 01:02:22;;;;;;;13.30;9.70;;;9.20;99.90;;;;;;7389913;19;20142;-71
2023/04/21 01:04:48;;;;;;;12.07;9.20;;;9.20;99.90;;;;;;7390085;19;20158;-72
2023/04/21 01:07:13;;;;;;;12.47;9.97;;;9.20;99.90;;;;;;7387531;19;20483;-72
2023/04/21 01:09:39;;;;;;;10.93;9.00;;;9.20;99.90;;;;;;7392300;19;20118;-72
2023/04/21 01:12:10;;;;;;;12.47;9.77;;;9.20;99.90;;;;;;7388090;19;20177;-73
2023/04/21 01:14:37;;;;;;;12.57;9.83;;;9.30;99.90;;;;;;7392371;19;20143;-73
2023/04/21 01:17:04;;;;;;;13.50;9.67;;;9.20;99.90;;;;;;7388377;19;20222;-73
2023/04/21 01:19:41;;;;;;;13.07;9.80;;;8.80;99.90;;;;;;7390142;19;20261;-73
2023/04/21 01:22:11;;;;;;;11.60;9.20;;;8.60;99.90;;;;;;7390858;19;20146;-73
2023/04/21 01:24:42;;;;;;;11.47;8.80;;;8.80;99.90;;;;;;7390004;19;20570;-73
2023/04/21 01:27:19;;;;;;;13.67;10.07;;;8.90;99.90;;;;;;7388370;19;20142;-73
2023/04/21 01:29:47;;;;;;;12.80;9.80;;;9.00;99.90;;;;;;7388454;19;20146;-72
2023/04/21 01:32:19;;;;;;;12.60;9.23;;;8.90;99.90;;;;;;7389425;19;20138;-72
2023/04/21 01:34:45;;;;;;;11.27;8.97;;;9.00;99.90;;;;;;7387021;19;20151;-73
2023/04/21 01:37:14;;;;;;;11.07;8.30;;;9.10;99.90;;;;;;7388071;19;20481;-72
2023/04/21 01:39:42;;;;;;;11.07;8.47;;;9.00;99.90;;;;;;7388900;19;20789;-72
2023/04/21 01:42:09;;;;;;;10.87;8.43;;;9.00;99.90;;;;;;7385980;19;20151;-72
2023/04/21 01:44:35;;;;;;;10.10;8.60;;;9.00;99.90;;;;;;7387067;19;20499;-72
2023/04/21 01:47:01;;;;;;;13.57;8.33;;;9.10;99.90;;;;;;7388613;19;20169;-72
2023/04/21 01:49:27;;;;;;;10.97;8.03;;;9.00;99.90;;;;;;7387795;19;20214;-71
2023/04/21 01:51:53;;;;;;;11.13;8.07;;;9.00;99.90;;;;;;7389269;19;20138;-72
2023/04/21 01:54:19;;;;;;;10.70;7.73;;;8.90;99.90;;;;;;7388297;19;20964;-73
2023/04/21 01:56:44;;;;;;;10.57;7.80;;;8.80;99.90;;;;;;7387606;19;20146;-72
2023/04/21 01:59:10;;;;;;;12.40;8.47;;;8.90;99.90;;;;;;7385881;19;20165;-71
2023/04/21 02:01:36;;;;;;;12.10;8.63;;;8.80;99.90;;;;;;7388717;19;20137;-72
2023/04/21 02:04:03;;;;;;;11.33;8.43;;;8.90;99.90;;;;;;7385645;19;20153;-72
2023/04/21 02:06:30;;;;;;;11.30;8.57;;;9.00;99.90;;;;;;7388394;19;20155;-72
2023/04/21 02:08:57;;;;;;;12.70;8.20;;;8.80;99.90;;;;;;7384844;19;20496;-73
2023/04/21 02:11:24;;;;;;;10.20;8.07;;;8.80;99.90;;;;;;7387738;19;20514;-73
2023/04/21 02:13:51;;;;;;;11.50;9.13;;;8.80;99.90;;;;;;7386153;19;20142;-72
2023/04/21 02:16:19;;;;;;;12.77;9.87;;;8.80;99.90;;;;;;7389348;19;20126;-73
2023/04/21 02:18:45;;;;;;;13.77;8.93;;;8.80;99.90;;;;;;7387845;19;20149;-72
2023/04/21 02:21:11;;;;;;;13.17;9.53;;;8.70;99.90;;;;;;7377062;19;20246;-72
2023/04/21 02:23:37;;;;;;;12.30;8.97;;;8.60;99.90;;;;;;7387624;19;20142;-72
2023/04/21 02:26:03;;;;;;;13.57;8.97;;;8.40;99.90;;;;;;7388340;19;20161;-72
2023/04/21 02:28:30;;;;;;;12.83;9.13;;;8.20;99.90;;;;;;7383693;19;20150;-72
2023/04/21 02:30:56;;;;;;;13.53;9.30;;;7.90;99.90;;;;;;7386965;19;20134;-72
2023/04/21 02:33:22;;;;;;;11.67;8.73;;;8.10;99.90;;;;;;7387953;19;20140;-73
2023/04/21 02:35:48;;;;;;;10.93;8.90;;;8.30;99.90;;;;;;7386309;19;20151;-72
2023/04/21 02:38:13;;;;;;;10.97;8.90;;;8.20;99.90;;;;;;7383036;19;20161;-72
2023/04/21 02:40:39;;;;;;;10.63;8.30;;;8.30;99.90;;;;;;7387638;19;20158;-71
2023/04/21 02:43:05;;;;;;;11.27;8.60;;;8.20;99.90;;;;;;7387852;19;20150;-71
2023/04/21 02:45:31;;;;;;;11.10;8.73;;;8.10;99.90;;;;;;7388366;19;20187;-72
2023/04/21 02:47:58;;;;;;;10.47;8.87;;;8.20;99.90;;;;;;7386123;19;20165;-71
2023/04/21 02:50:24;;;;;;;12.30;8.53;;;8.10;99.90;;;;;;7383899;19;20618;-71
2023/04/21 02:52:50;;;;;;;11.70;9.23;;;8.30;99.90;;;;;;7386848;19;20135;-72
2023/04/21 02:55:15;;;;;;;10.87;8.43;;;8.30;99.90;;;;;;7387729;19;20587;-72
2023/04/21 02:57:41;;;;;;;12.03;8.63;;;7.90;99.90;;;;;;7385579;19;20168;-72
2023/04/21 03:00:10;;;;;;;14.77;9.07;;;7.70;99.90;;;;;;7384600;19;20139;-71
2023/04/21 03:02:36;;;;;;;13.00;9.67;;;8.00;99.90;;;;;;7387014;19;20159;-71
2023/04/21 03:05:03;;;;;;;15.37;10.07;;;8.20;99.90;;;;;;7386235;19;20139;-72
2023/04/21 03:07:28;;;;;;;11.57;9.43;;;8.30;99.90;;;;;;7385645;19;20202;-71
2023/04/21 03:09:54;;;;;;;10.87;9.03;;;8.20;99.90;;;;;;7385041;19;20462;-71
2023/04/21 03:12:20;;;;;;;13.90;9.23;;;8.30;99.90;;;;;;7387767;19;20496;-71
2023/04/21 03:14:46;;;;;;;12.90;9.50;;;8.30;99.90;;;;;;7385780;19;20820;-72
2023/04/21 03:17:12;;;;;;;13.70;9.87;;;8.30;99.90;;;;;;7385085;19;20131;-73
2023/04/21 03:19:37;;;;;;;13.50;9.77;;;8.10;99.90;;;;;;7386968;19;20592;-72
2023/04/21 03:22:03;;;;;;;12.07;9.03;;;8.10;99.90;;;;;;7384010;19;20142;-72
2023/04/21 03:24:29;;;;;;;11.03;9.00;;;8.10;99.90;;;;;;7388359;19;20210;-71
2023/04/21 03:26:55;;;;;;;10.83;8.80;;;7.80;99.90;;;;;;7384029;19;20160;-72
2023/04/21 03:29:22;;;;;;;13.13;9.17;;;8.00;99.90;;;;;;7384625;19;20130;-72
2023/04/21 03:31:47;;;;;;;13.27;9.73;;;8.30;99.90;;;;;;7383604;19;20141;-71
2023/04/21 03:34:13;;;;;;;15.17;10.63;;;8.40;99.90;;;;;;7384664;19;20570;-72
2023/04/21 03:36:39;;;;;;;11.50;9.17;;;8.20;99.90;;;;;;7383387;19;20127;-72
2023/04/21 03:39:05;;;;;;;13.93;9.43;;;8.30;99.90;;;;;;7386393;19;20139;-71
2023/04/21 03:41:32;;;;;;;13.90;9.97;;;8.40;99.90;;;;;;7383077;19;20182;-72
2023/04/21 03:43:58;;;;;;;12.17;8.77;;;8.40;99.90;;;;;;7385631;19;20710;-72
2023/04/21 03:46:24;;;;;;;12.10;8.80;;;8.20;99.90;;;;;;7385582;19;20134;-72
2023/04/21 03:48:50;;;;;;;12.23;9.67;;;8.10;99.90;;;;;;7383934;19;20139;-72
2023/04/21 03:51:16;;;;;;;12.93;9.27;;;8.20;99.90;;;;;;7381759;19;21300;-72
2023/04/21 03:53:42;;;;;;;12.70;10.00;;;8.30;99.90;;;;;;7385531;19;20575;-71
2023/04/21 03:56:08;;;;;;;13.23;10.30;;;8.30;99.90;;;;;;7382355;19;20147;-72
2023/04/21 03:58:36;;;;;;;14.27;9.63;;;8.20;99.90;;;;;;7386699;19;20462;-73
2023/04/21 04:01:04;;;;;;;12.40;9.37;;;8.10;99.90;;;;;;7385263;19;20163;-71
2023/04/21 04:03:29;;;;;;;12.40;9.20;;;7.80;99.90;;;;;;7384198;19;20631;-72
2023/04/21 04:05:55;;;;;;;12.90;9.77;;;8.00;99.90;;;;;;7383045;19;20169;-72
2023/04/21 04:08:21;;;;;;;14.30;9.37;;;8.10;99.90;;;;;;7383605;19;20159;-72
2023/04/21 04:10:47;;;;;;;12.67;9.40;;;8.30;99.90;;;;;;7384905;19;20151;-72
2023/04/21 04:13:12;;;;;;;12.70;9.93;;;8.30;99.90;;;;;;7384664;19;20168;-71
2023/04/21 04:15:38;;;;;;;13.90;9.30;;;8.40;99.90;;;;;;7384723;19;20658;-72
2023/04/21 04:18:04;;;;;;;12.60;9.33;;;8.40;99.90;;;;;;7384309;19;20142;-73
2023/04/21 04:20:30;;;;;;;11.53;9.03;;;8.40;99.90;;;;;;7384281;19;20555;-72
2023/04/21 04:22:56;;;;;;;13.10;9.93;;;8.20;99.90;;;;;;7385065;19;20210;-72
2023/04/21 04:25:22;;;;;;;13.93;9.23;;;8.20;99.90;;;;;;7382971;19;20161;-71
2023/04/21 04:27:49;;;;;;;12.80;9.43;;;8.30;99.90;;;;;;7382307;19;20176;-71
2023/04/21 04:30:15;;;;;;;13.33;10.33;;;8.40;99.90;;;;;;7382091;19;20155;-70
2023/04/21 04:32:41;;;;;;;13.20;9.47;;;8.40;99.90;;;;;;7385378;19;20485;-72
2023/04/21 04:35:08;;;;;;;12.20;9.53;;;8.40;99.90;;;;;;7387828;19;20202;-71
2023/04/21 04:37:38;;;;;;;13.47;9.07;;;8.30;99.90;;;;;;7392132;19;20135;-72
2023/04/21 04:40:05;;;;;;;13.00;9.53;;;8.40;99.90;;;;;;7391345;19;20142;-71
2023/04/21 04:42:35;;;;;;;15.17;9.70;;;8.40;99.90;;;;;;7388842;19;20147;-71
2023/04/21 04:45:01;;;;;;;14.77;9.90;;;8.20;99.90;;;;;;7391400;19;20503;-71
2023/04/21 04:47:27;;;;;;;14.73;9.30;;;8.30;99.90;;;;;;7386733;19;20461;-72
2023/04/21 04:49:53;;;;;;;13.27;9.47;;;8.30;99.90;;;;;;7389062;19;20130;-72
2023/04/21 04:52:19;;;;;;;12.67;9.67;;;8.30;99.90;;;;;;7389020;19;20157;-72
2023/04/21 04:54:45;;;;;;;12.70;9.30;;;8.30;99.90;;;;;;7390878;19;20141;-73
2023/04/21 04:57:11;;;;;;;12.23;9.60;;;8.30;99.90;;;;;;7390832;19;20443;-72
2023/04/21 04:59:36;;;;;;;12.90;10.07;;;8.30;99.90;;;;;;7390054;19;20209;-71
2023/04/21 05:02:02;;;;;;;11.63;8.83;;;8.20;99.90;;;;;;7387489;19;20130;-73
2023/04/21 05:04:28;;;;;;;12.20;8.70;;;8.20;99.90;;;;;;7389272;19;20166;-72
2023/04/21 05:06:54;;;;;;;13.73;9.07;;;8.30;99.90;;;;;;7387630;19;21703;-72
2023/04/21 05:09:20;;;;;;;12.23;9.40;;;8.30;99.90;;;;;;7388370;19;20151;-71
2023/04/21 05:11:46;;;;;;;13.10;9.10;;;8.00;99.90;;;;;;7388675;19;20143;-72
2023/04/21 05:14:11;;;;;;;11.93;9.40;;;8.20;99.90;;;;;;7390131;19;20147;-71
2023/04/21 05:16:37;;;;;;;11.50;8.73;;;8.30;99.90;;;;;;7388746;19;20135;-71
2023/04/21 05:19:03;;;;;;;12.27;9.20;;;8.30;99.90;;;;;;7389374;19;20439;-71
2023/04/21 05:21:30;;;;;;;13.53;9.73;;;8.30;99.90;;;;;;7387097;19;20456;-72
2023/04/21 05:23:57;;;;;;;11.30;8.50;;;8.20;99.90;;;;;;7388932;19;20147;-71
2023/04/21 05:26:24;;;;;;;13.70;9.43;;;8.30;99.90;;;;;;7388715;19;20127;-72
2023/04/21 05:28:50;;;;;;;13.50;10.03;;;8.40;99.90;;;;;;7387432;19;20180;-71
2023/04/21 05:31:16;;;;;;;14.50;9.77;;;8.10;99.90;;;;;;7382636;19;20623;-71
2023/04/21 05:33:42;;;;;;;14.53;9.53;;;7.90;99.90;;;;;;7386320;19;20146;-72
2023/04/21 05:36:08;;;;;;;14.27;10.27;;;8.20;99.90;;;;;;7385560;19;21059;-73
2023/04/21 05:38:36;;;;;;;13.53;10.13;;;8.40;99.90;;;;;;7388147;19;20151;-72
2023/04/21 05:41:02;;;;;;;14.87;11.03;;;8.50;99.90;;;;;;7382141;19;20185;-73
2023/04/21 05:43:28;;;;;;;14.33;10.60;;;7.70;99.90;;;;;;7388280;19;21394;-73
2023/04/21 05:45:53;;;;;;;15.30;11.20;;;8.10;99.90;;;;;;7387318;19;20223;-73
2023/04/21 05:48:19;;;;;;;16.83;11.00;;;8.20;99.90;;;;;;7384821;19;20194;-72
2023/04/21 05:50:45;;;;;;;15.57;11.43;;;8.40;99.90;;;;;;7385312;19;20134;-72
2023/04/21 05:53:11;;;;;;;14.80;10.97;;;8.50;99.90;;;;;;7387247;19;20158;-72
2023/04/21 05:55:36;;;;;;;18.40;11.93;;;8.60;99.90;;;;;;7385994;19;20142;-72
2023/04/21 05:58:03;;;;;;;17.57;12.50;;;8.70;99.90;;;;;;7388105;19;20196;-73
2023/04/21 06:00:29;;;;;;;16.00;12.13;;;8.70;99.90;;;;;;7387215;19;20151;-73
2023/04/21 06:02:55;;;;;;;20.40;12.63;;;8.80;99.90;;;;;;7387524;19;20239;-73
2023/04/21 06:05:20;;;;;;;18.57;12.60;;;8.80;99.90;;;;;;7388887;19;20134;-73
2023/04/21 06:07:46;;;;;;;17.67;12.37;;;8.80;99.90;;;;;;7386997;19;20206;-73
2023/04/21 06:10:13;;;;;;;18.10;12.53;;;8.90;99.90;;;;;;7386902;19;20161;-73
2023/04/21 06:12:39;;;;;;;31.43;19.80;;;8.90;99.90;;;;;;7385758;19;20302;-73
2023/04/21 06:15:05;;;;;;;18.27;12.63;;;8.80;99.90;;;;;;7385695;19;20178;-73
2023/04/21 06:17:31;;;;;;;16.13;12.40;;;8.90;99.90;;;;;;7387212;19;20142;-73
2023/04/21 06:19:57;;;;;;;16.97;12.00;;;9.00;99.90;;;;;;7383035;19;20127;-73
2023/04/21 06:22:23;;;;;;;19.00;12.80;;;9.00;99.90;;;;;;7384312;19;20135;-73
2023/04/21 06:24:49;;;;;;;18.97;13.97;;;8.90;99.90;;;;;;7393404;19;20134;-74
2023/04/21 06:27:15;;;;;;;19.67;12.63;;;9.00;99.90;;;;;;7383552;19;20149;-75
2023/04/21 06:29:42;;;;;;;19.57;12.67;;;9.10;99.90;;;;;;7388517;19;20131;-74
2023/04/21 06:32:08;;;;;;;19.57;13.77;;;9.20;99.90;;;;;;7386773;19;20568;-75
2023/04/21 06:34:34;;;;;;;18.50;13.27;;;9.20;99.90;;;;;;7387214;19;20142;-75
2023/04/21 06:37:00;;;;;;;19.00;13.80;;;9.20;99.90;;;;;;7388368;19;20138;-76
2023/04/21 06:39:26;;;;;;;19.10;13.37;;;9.40;99.90;;;;;;7387895;19;20138;-74
2023/04/21 06:41:53;;;;;;;17.33;12.60;;;9.60;99.90;;;;;;7387324;19;20174;-75
2023/04/21 06:44:19;;;;;;;21.40;13.40;;;9.80;99.90;;;;;;7386824;19;20134;-74
2023/04/21 06:46:46;;;;;;;21.97;13.87;;;9.90;99.90;;;;;;7387495;19;20171;-76
2023/04/21 06:49:12;;;;;;;21.30;13.80;;;9.90;99.90;;;;;;7385559;19;20146;-76
2023/04/21 06:51:37;;;;;;;19.63;13.03;;;9.80;99.90;;;;;;7385653;19;20154;-75
2023/04/21 06:54:04;;;;;;;20.67;13.37;;;9.70;99.90;;;;;;7386918;19;20754;-75
2023/04/21 06:56:30;;;;;;;21.70;13.50;;;9.70;99.90;;;;;;7386880;19;20154;-75
2023/04/21 06:58:57;;;;;;;21.03;14.27;;;9.70;99.90;;;;;;7385166;19;20135;-75
2023/04/21 07:01:23;;;;;;;21.70;14.47;;;9.70;99.90;;;;;;7387200;19;20206;-75
2023/04/21 07:03:50;;;;;;;21.70;14.40;;;9.60;99.90;;;;;;7385314;19;20150;-75
2023/04/21 07:06:16;;;;;;;20.17;14.13;;;9.50;99.90;;;;;;7387472;19;20262;-74
2023/04/21 07:08:45;;;;;;;18.33;12.57;;;9.60;99.90;;;;;;7385323;19;20586;-75
2023/04/21 07:11:12;;;;;;;19.33;12.73;;;9.80;99.90;;;;;;7386781;19;20182;-76
2023/04/21 07:13:37;;;;;;;18.80;13.30;;;10.10;99.90;;;;;;7385837;19;20582;-74
2023/04/21 07:16:03;;;;;;;18.57;13.07;;;10.30;99.90;;;;;;7387015;19;20149;-74
2023/04/21 07:18:30;;;;;;;17.97;13.00;;;10.40;99.90;;;;;;7387096;19;20149;-75
2023/04/21 07:20:55;;;;;;;18.73;13.00;;;10.50;99.90;;;;;;7385247;19;20147;-75
2023/04/21 07:23:21;;;;;;;20.07;13.90;;;10.50;99.90;;;;;;7385141;19;20163;-74
2023/04/21 07:25:47;;;;;;;22.37;13.37;;;10.90;99.90;;;;;;7385050;19;20845;-74
2023/04/21 07:28:14;;;;;;;17.40;13.07;;;11.20;99.90;;;;;;7382705;19;20202;-74
2023/04/21 07:30:40;;;;;;;19.47;12.03;;;11.30;99.90;;;;;;7384715;19;20134;-75
2023/04/21 07:33:06;;;;;;;17.33;12.17;;;11.40;99.90;;;;;;7383886;19;20494;-74
2023/04/21 07:35:32;;;;;;;19.33;13.03;;;11.40;99.90;;;;;;7385572;19;20465;-75
2023/04/21 07:37:58;;;;;;;20.03;14.10;;;11.40;99.90;;;;;;7384439;19;20134;-75
2023/04/21 07:40:24;;;;;;;17.90;12.30;;;11.40;99.90;;;;;;7388353;19;20175;-73
2023/04/21 07:42:49;;;;;;;16.17;12.67;;;11.30;99.90;;;;;;7383851;19;20154;-75
2023/04/21 07:45:15;;;;;;;17.17;12.20;;;11.60;99.90;;;;;;7385473;19;20138;-74
2023/04/21 07:47:41;;;;;;;17.37;12.20;;;11.90;99.90;;;;;;7386516;19;20211;-75
2023/04/21 07:50:07;;;;;;;15.30;10.63;;;12.00;99.90;;;;;;7384987;19;20138;-76
2023/04/21 07:52:33;;;;;;;15.93;10.77;;;12.30;99.90;;;;;;7383852;19;20138;-74
2023/04/21 07:54:59;;;;;;;15.30;11.90;;;12.30;99.90;;;;;;7387395;19;20185;-75
2023/04/21 07:57:24;;;;;;;18.93;12.63;;;12.20;99.90;;;;;;7385412;19;20463;-75
2023/04/21 07:59:50;;;;;;;14.83;11.27;;;12.30;99.90;;;;;;7383353;19;20567;-75
2023/04/21 08:02:16;;;;;;;16.23;11.03;;;12.60;99.90;;;;;;7383647;19;20151;-75
2023/04/21 08:04:42;;;;;;;15.47;10.97;;;12.90;99.90;;;;;;7386301;19;20134;-74
2023/04/21 08:07:08;;;;;;;15.65;10.98;;;13.30;99.90;;;;;;7383368;19;20173;-78
2023/04/21 08:09:34;;;;;;;14.97;10.80;;;13.50;99.90;;;;;;7386734;19;20154;-75
2023/04/21 08:12:01;;;;;;;14.47;10.40;;;13.90;99.90;;;;;;7390166;19;20138;-75
2023/04/21 08:14:27;;;;;;;12.93;9.73;;;14.40;99.90;;;;;;7390921;19;20150;-75
2023/04/21 08:16:53;;;;;;;14.27;10.40;;;14.60;99.90;;;;;;7392167;19;20226;-76
2023/04/21 08:19:19;;;;;;;13.40;9.90;;;14.60;99.90;;;;;;7392113;19;20151;-75
2023/04/21 08:21:45;;;;;;;14.60;9.40;;;14.80;99.90;;;;;;7392730;19;20199;-75
2023/04/21 08:24:11;;;;;;;13.47;9.87;;;14.50;99.90;;;;;;7391830;19;20150;-76
2023/04/21 08:26:37;;;;;;;12.20;9.17;;;14.40;99.90;;;;;;7390765;19;20153;-75
2023/04/21 08:29:05;;;;;;;11.87;8.67;;;14.10;99.90;;;;;;7387893;19;20202;-75
2023/04/21 08:31:32;;;;;;;17.77;9.90;;;13.90;99.90;;;;;;7392415;19;20566;-75
2023/04/21 08:34:00;;;;;;;12.37;8.30;;;13.90;99.90;;;;;;7390805;19;20146;-76
2023/04/21 08:36:26;;;;;;;11.00;7.93;;;13.90;99.90;;;;;;7392858;19;20131;-76
2023/04/21 08:38:52;;;;;;;8.87;7.47;;;13.70;99.90;;;;;;7390391;19;20134;-75
2023/04/21 08:41:19;;;;;;;9.10;7.40;;;13.50;99.90;;;;;;7390196;19;20200;-76
2023/04/21 08:43:45;;;;;;;12.20;8.27;;;13.50;99.90;;;;;;7390845;19;20138;-76
2023/04/21 08:46:12;;;;;;;11.20;8.17;;;13.70;99.90;;;;;;7388615;19;20464;-76
2023/04/21 08:48:38;;;;;;;10.40;8.53;;;13.80;99.90;;;;;;7390541;19;20131;-76
2023/04/21 08:51:08;;;;;;;10.80;7.70;;;13.90;99.90;;;;;;7391431;19;20584;-75
2023/04/21 08:53:35;;;;;;;11.30;8.33;;;13.80;99.90;;;;;;7390958;19;20146;-76
2023/04/21 08:56:02;;;;;;;11.70;8.70;;;13.80;99.90;;;;;;7390062;19;20171;-76
2023/04/21 08:58:28;;;;;;;11.30;8.37;;;13.90;99.90;;;;;;7391111;19;20131;-76
2023/04/21 09:00:54;;;;;;;11.37;8.00;;;13.70;99.90;;;;;;7392826;19;20214;-77
2023/04/21 09:03:24;;;;;;;13.60;8.47;;;13.50;99.90;;;;;;7391645;19;20689;-76
2023/04/21 09:06:01;;;;;;;12.70;8.67;;;13.50;99.90;;;;;;7391343;19;20147;-76
2023/04/21 09:08:29;;;;;;;10.90;8.60;;;13.60;99.90;;;;;;7388423;19;20166;-76
2023/04/21 09:11:00;;;;;;;10.03;7.53;;;13.60;99.90;;;;;;7389850;19;20247;-76
2023/04/21 09:13:35;;;;;;;9.77;7.80;;;13.80;99.90;;;;;;7389816;19;20158;-77
2023/04/21 09:16:15;;;;;;;8.47;6.60;;;13.80;99.90;;;;;;7391291;19;20139;-76
2023/04/21 09:18:43;;;;;;;10.27;7.30;;;13.70;99.90;;;;;;7390511;19;20139;-76
2023/04/21 09:21:14;;;;;;;8.10;6.80;;;14.00;99.90;;;;;;7388744;19;20154;-77
2023/04/21 09:23:41;;;;;;;10.53;7.47;;;13.90;99.90;;;;;;7390046;19;20591;-77
2023/04/21 09:26:07;;;;;;;10.60;7.87;;;13.90;99.90;;;;;;7391626;19;20161;-77
2023/04/21 09:28:33;;;;;;;8.90;6.57;;;13.90;99.90;;;;;;7387164;19;20150;-77
2023/04/21 09:30:59;;;;;;;7.90;6.20;;;13.90;99.90;;;;;;7389874;19;20229;-75
2023/04/21 09:33:25;;;;;;;9.43;6.80;;;14.00;99.90;;;;;;7388154;19;20487;-77
2023/04/21 09:35:51;;;;;;;10.32;6.07;;;14.00;99.90;;;;;;7388460;19;20271;-77
2023/04/21 09:38:21;;;;;;;6.70;5.37;;;13.90;99.90;;;;;;7388215;19;20146;-77
2023/04/21 09:40:56;;;;;;;7.10;5.67;;;13.90;99.90;;;;;;7387391;19;20195;-76
2023/04/21 09:43:22;;;;;;;10.90;6.67;;;14.00;99.90;;;;;;7388340;19;20149;-75
2023/04/21 09:45:48;;;;;;;12.48;7.22;;;14.20;99.90;;;;;;7387796;19;20458;-77
2023/04/21 09:48:16;;;;;;;7.90;5.78;;;14.10;99.90;;;;;;7389176;19;20127;-75
2023/04/21 09:50:43;;;;;;;10.13;5.73;;;14.40;99.90;;;;;;7390952;19;20431;-76
2023/04/21 09:53:15;;;;;;;7.70;6.10;;;14.40;99.90;;;;;;7388571;19;20150;-76
2023/04/21 09:55:42;;;;;;;6.38;4.78;;;14.30;99.90;;;;;;7389373;19;20130;-77
2023/04/21 09:58:12;;;;;;;6.72;5.22;;;14.30;99.90;;;;;;7389008;19;20134;-77
2023/04/21 10:00:38;;;;;;;6.20;5.13;;;14.40;99.90;;;;;;7387792;19;20150;-77
2023/04/21 10:03:09;;;;;;;8.32;4.65;;;14.50;99.90;;;;;;7388531;19;20177;-77
2023/04/21 10:05:36;;;;;;;5.75;4.78;;;14.70;99.90;;;;;;7388925;19;20147;-76
2023/04/21 10:08:04;;;;;;;7.28;5.35;;;14.90;99.90;;;;;;7387727;19;20154;-76
2023/04/21 10:10:34;;;;;;;7.83;5.10;;;14.70;99.90;;;;;;7402995;19;20139;-76
2023/04/21 10:13:01;;;;;;;6.82;4.85;;;14.70;99.90;;;;;;7387576;19;20511;-76
2023/04/21 10:15:40;;;;;;;8.02;4.60;;;14.80;99.90;;;;;;7387890;19;20214;-77
2023/04/21 10:18:22;;;;;;;6.22;5.15;;;15.00;99.90;;;;;;7388169;19;20696;-76
2023/04/21 10:20:55;;;;;;;6.85;5.55;;;15.00;99.90;;;;;;7387320;19;20459;-77
2023/04/21 10:23:29;;;;;;;6.32;5.13;;;15.10;99.90;;;;;;7387315;19;20159;-77
2023/04/21 10:26:07;;;;;;;7.72;5.75;;;15.10;99.90;;;;;;7387807;19;20543;-76
2023/04/21 10:28:44;;;;;;;9.13;6.70;;;15.00;99.90;;;;;;7386335;19;20153;-77
2023/04/21 10:31:30;;;;;;;8.98;6.72;;;15.00;99.90;;;;;;7388366;19;20658;-76
2023/04/21 10:34:17;;;;;;;9.07;6.53;;;15.00;99.90;;;;;;7387048;19;20138;-77
2023/04/21 10:36:56;;;;;;;8.88;6.30;;;15.00;99.90;;;;;;7388799;19;20134;-76
2023/04/21 10:39:34;;;;;;;8.18;6.28;;;14.90;99.90;;;;;;7387914;19;20174;-77
2023/04/21 10:42:12;;;;;;;6.95;5.03;;;14.80;99.90;;;;;;7388029;19;20177;-76
2023/04/21 10:45:05;;;;;;;7.18;6.05;;;14.80;99.90;;;;;;7389907;19;20152;-76
2023/04/21 10:47:41;;;;;;;6.97;5.18;;;14.90;99.90;;;;;;7385346;19;20155;-77
2023/04/21 10:50:11;;;;;;;8.73;6.15;;;14.90;99.90;;;;;;7388266;19;20145;-76
2023/04/21 10:52:37;;;;;;;7.18;5.60;;;14.90;99.90;;;;;;7386081;19;20151;-76
2023/04/21 10:55:11;;;;;;;7.03;5.87;;;14.90;99.90;;;;;;7389581;19;20209;-76
2023/04/21 10:57:41;;;;;;;8.73;6.18;;;14.90;99.90;;;;;;7385658;19;20614;-73
2023/04/21 11:00:07;;;;;;;7.95;5.68;;;15.10;99.90;;;;;;7389493;19;20141;-75
2023/04/21 11:02:35;;;;;;;6.88;5.63;;;15.30;99.90;;;;;;7385342;19;20150;-75
2023/04/21 11:05:01;;;;;;;7.32;5.43;;;15.60;99.90;;;;;;7386565;19;20151;-76
2023/04/21 11:07:27;;;;;;;8.20;5.22;;;15.70;99.90;;;;;;7386590;19;20179;-75
2023/04/21 11:09:59;;;;;;;7.35;5.18;;;15.80;99.90;;;;;;7389638;19;20127;-73
2023/04/21 11:12:28;;;;;;;6.28;5.07;;;15.80;99.90;;;;;;7386534;19;20213;-75
2023/04/21 11:14:55;;;;;;;7.35;5.18;;;15.90;99.90;;;;;;7391678;19;20213;-78
2023/04/21 11:17:22;;;;;;;7.35;5.00;;;15.80;99.90;;;;;;7386919;19;20169;-83
2023/04/21 11:19:50;;;;;;;7.35;5.00;;;15.90;99.90;;;;;;7387812;19;20146;-77
2023/04/21 11:22:19;;;;;;;6.03;5.07;;;16.00;99.90;;;;;;7387708;19;20147;-76
2023/04/21 11:24:47;;;;;;;5.82;4.85;;;16.00;99.90;;;;;;7386881;19;20430;-76
2023/04/21 11:27:14;;;;;;;6.93;4.40;;;16.10;99.90;;;;;;7387929;19;20135;-76
2023/04/21 11:29:41;;;;;;;6.70;4.60;;;16.20;99.90;;;;;;7386591;19;20213;-77
2023/04/21 11:32:08;;;;;;;5.30;4.30;;;16.20;99.90;;;;;;7384671;19;20141;-77
2023/04/21 11:34:37;;;;;;;5.65;4.25;;;16.20;99.90;;;;;;7386504;19;20142;-77
2023/04/21 11:37:03;;;;;;;4.95;4.15;;;16.10;99.90;;;;;;7386764;19;20130;-76
2023/04/21 11:39:29;;;;;;;6.45;4.93;;;16.10;99.90;;;;;;7386586;19;20148;-78
2023/04/21 11:41:55;;;;;;;6.35;4.95;;;16.10;99.90;;;;;;7383517;19;20158;-77
2023/04/21 11:44:40;;;;;;;6.45;4.50;;;16.10;99.90;;;;;;7387720;19;20135;-77
2023/04/21 11:47:21;;;;;;;5.18;4.07;;;16.30;99.90;;;;;;7392625;19;20457;-79
2023/04/21 11:49:51;;;;;;;6.10;4.63;;;16.30;99.90;;;;;;7391788;19;20230;-78
2023/04/21 11:52:20;;;;;;;5.43;4.82;;;16.50;99.90;;;;;;7391815;19;20163;-78
2023/04/21 11:54:47;;;;;;;6.40;4.55;;;16.50;99.90;;;;;;7392856;19;20146;-78
2023/04/21 11:57:16;;;;;;;5.55;4.78;;;16.70;99.90;;;;;;7389812;19;20214;-77
2023/04/21 11:59:45;;;;;;;6.45;5.03;;;16.70;99.90;;;;;;7392530;19;20623;-78
2023/04/21 12:02:21;;;;;;;6.20;4.38;;;16.70;99.90;;;;;;7390915;19;20469;-77
2023/04/21 12:05:00;;;;;;;5.78;4.70;;;16.80;99.90;;;;;;7391654;19;20584;-77
2023/04/21 12:07:29;;;;;;;6.95;4.63;;;16.80;99.90;;;;;;7391490;19;20138;-79
2023/04/21 12:09:54;;;;;;;5.30;4.00;;;16.90;99.90;;;;;;7391745;19;20146;-77
2023/04/21 12:12:25;;;;;;;6.68;5.03;;;16.90;99.90;;;;;;7390796;19;20203;-77
2023/04/21 12:14:52;;;;;;;6.43;4.43;;;17.00;99.90;;;;;;7391006;19;20493;-77
2023/04/21 12:17:18;;;;;;;5.63;3.95;;;17.00;99.90;;;;;;7392031;19;20485;-78
2023/04/21 12:19:44;;;;;;;7.25;4.40;;;17.20;99.90;;;;;;7392878;19;20142;-78
2023/04/21 12:22:17;;;;;;;6.70;4.47;;;17.40;99.90;;;;;;7393353;19;20214;-77
2023/04/21 12:24:44;;;;;;;5.47;4.43;;;17.30;99.90;;;;;;7391350;19;20238;-77
2023/04/21 12:27:10;;;;;;;5.90;4.45;;;17.20;99.90;;;;;;7392369;19;20142;-77
2023/04/21 12:29:37;;;;;;;6.43;4.30;;;17.30;99.90;;;;;;7391213;19;20146;-77
2023/04/21 12:32:07;;;;;;;5.65;4.10;;;17.40;99.90;;;;;;7388718;19;20638;-78
2023/04/21 12:34:33;;;;;;;4.80;3.70;;;17.50;99.90;;;;;;7390654;19;20131;-78
2023/04/21 12:36:59;;;;;;;5.50;3.92;;;17.50;99.90;;;;;;7391156;19;20147;-78
2023/04/21 12:39:25;;;;;;;4.82;3.53;;;17.60;99.90;;;;;;7391298;19;20681;-77
2023/04/21 12:41:51;;;;;;;4.20;3.55;;;17.60;99.90;;;;;;7392020;19;20509;-78
2023/04/21 12:44:17;;;;;;;3.97;3.58;;;17.80;99.90;;;;;;7391201;19;20185;-77